createdAt,value
2019-04-22T00:00:04.712Z,101055.35
2019-04-22T00:02:49.036Z,101054.80
2019-04-22T00:05:36.504Z,101048.39
2019-04-22T00:08:18.134Z,101047.05
2019-04-22T00:11:01.419Z,101053.94
2019-04-22T00:13:32.238Z,101052.97
2019-04-22T00:15:59.328Z,101048.22
2019-04-22T00:18:42.889Z,101048.77
2019-04-22T00:21:12.751Z,101045.91
2019-04-22T00:23:49.702Z,101046.07
2019-04-22T00:26:26.075Z,101041.77
2019-04-22T00:29:03.677Z,101042.61
2019-04-22T00:31:49.536Z,101043.18
2019-04-22T00:34:16.645Z,101039.86
2019-04-22T00:36:55.577Z,101038.67
2019-04-22T00:39:37.151Z,101040.37
2019-04-22T00:42:03.265Z,101036.30
2019-04-22T00:44:39.917Z,101029.80
2019-04-22T00:47:17.701Z,101026.44
2019-04-22T00:52:16.723Z,101029.87
2019-04-22T00:54:55.160Z,101029.53
2019-04-22T00:57:21.645Z,101030.42
2019-04-22T00:59:57.256Z,101021.54
2019-04-22T01:02:38.986Z,101024.88
2019-04-22T01:05:10.449Z,101015.19
2019-04-22T01:07:38.330Z,101017.89
2019-04-22T01:10:11.671Z,101010.88
2019-04-22T01:12:46.731Z,101013.22
2019-04-22T01:15:23.746Z,101014.58
2019-04-22T01:17:52.553Z,101007.45
2019-04-22T01:20:45.679Z,101010.16
2019-04-22T01:22:58.949Z,101005.75
2019-04-22T01:25:34.884Z,101008.69
2019-04-22T01:27:58.428Z,101010.16
2019-04-22T01:30:26.460Z,101010.70
2019-04-22T01:32:54.210Z,101015.17
2019-04-22T01:35:35.853Z,101009.39
2019-04-22T01:38:13.386Z,101003.72
2019-04-22T01:41:04.549Z,100997.94
2019-04-22T01:43:35.029Z,100994.63
2019-04-22T01:46:12.683Z,100993.66
2019-04-22T01:48:44.465Z,100984.45
2019-04-22T01:51:07.630Z,100989.72
2019-04-22T01:53:56.574Z,100989.80
2019-04-22T01:56:20.580Z,100982.90
2019-04-22T01:58:50.424Z,100975.86
2019-04-22T02:01:30.759Z,100979.22
2019-04-22T02:04:08.866Z,100988.03
2019-04-22T02:06:44.423Z,100983.41
2019-04-22T02:09:17.741Z,100990.09
2019-04-22T02:11:54.973Z,100982.03
2019-04-22T02:14:31.590Z,100985.60
2019-04-22T02:17:02.331Z,100985.81
2019-04-22T02:19:37.687Z,100982.89
2019-04-22T02:22:11.607Z,100979.42
2019-04-22T02:24:46.724Z,100977.45
2019-04-22T02:27:17.761Z,100975.75
2019-04-22T02:29:50.356Z,100977.08
2019-04-22T02:32:39.238Z,100978.00
2019-04-22T02:35:05.130Z,100976.30
2019-04-22T02:38:04.968Z,100978.98
2019-04-22T02:40:14.548Z,100977.22
2019-04-22T02:42:51.832Z,100974.11
2019-04-22T02:45:26.592Z,100974.20
2019-04-22T02:47:58.542Z,100981.27
2019-04-22T02:50:28.559Z,100972.97
2019-04-22T02:53:01.930Z,100973.00
2019-04-22T02:55:40.910Z,100969.89
2019-04-22T02:58:21.844Z,100969.42
2019-04-22T03:03:31.277Z,100963.34
2019-04-22T03:06:07.555Z,100960.30
2019-04-22T03:08:30.156Z,100964.28
2019-04-22T03:11:19.147Z,100957.73
2019-04-22T03:16:17.496Z,100960.80
2019-04-22T03:26:27.413Z,100951.22
2019-04-22T03:39:45.482Z,100963.95
2019-04-22T03:44:49.634Z,100965.65
2019-04-22T03:47:26.059Z,100970.95
2019-04-22T03:49:58.936Z,100966.13
2019-04-22T03:52:20.701Z,100962.17
2019-04-22T03:57:40.589Z,100963.06
2019-04-22T04:05:10.472Z,100970.06
2019-04-22T04:07:48.458Z,100960.41
2019-04-22T04:20:37.247Z,100969.64
2019-04-22T04:25:42.498Z,100969.64
2019-04-22T04:28:47.236Z,100971.41
2019-04-22T04:30:42.911Z,100975.35
2019-04-22T04:38:34.129Z,100978.41
2019-04-22T04:40:58.561Z,100981.45
2019-04-22T04:43:59.797Z,100988.48
2019-04-22T04:53:41.780Z,100989.34
2019-04-22T05:01:35.181Z,100996.37
2019-04-22T05:09:15.076Z,100990.58
2019-04-22T05:16:47.948Z,101004.52
2019-04-22T05:19:22.569Z,101004.52
2019-04-22T05:21:53.385Z,101002.77
2019-04-22T05:24:22.721Z,101004.44
2019-04-22T05:26:57.060Z,100998.32
2019-04-22T05:32:04.315Z,101007.11
2019-04-22T05:34:34.622Z,101010.59
2019-04-22T05:37:10.831Z,101004.43
2019-04-22T05:39:38.089Z,101008.78
2019-04-22T05:42:16.338Z,101006.14
2019-04-22T05:44:49.608Z,101006.58
2019-04-22T05:47:22.493Z,101010.05
2019-04-22T05:49:47.873Z,101007.36
2019-04-22T05:52:25.221Z,101002.95
2019-04-22T05:55:02.473Z,101000.21
2019-04-22T05:57:33.035Z,100994.91
2019-04-22T06:00:06.385Z,100997.00
2019-04-22T06:05:32.035Z,101000.81
2019-04-22T06:07:49.071Z,101005.11
2019-04-22T06:10:34.446Z,101008.59
2019-04-22T06:12:56.319Z,101015.95
2019-04-22T06:15:36.124Z,101008.84
2019-04-22T06:18:18.857Z,101007.97
2019-04-22T06:21:00.544Z,101009.70
2019-04-22T06:26:09.764Z,101004.60
2019-04-22T06:31:10.711Z,101005.31
2019-04-22T06:33:41.586Z,101002.11
2019-04-22T06:36:15.839Z,101006.34
2019-04-22T06:39:00.982Z,101000.14
2019-04-22T06:41:24.836Z,101004.48
2019-04-22T06:43:58.629Z,101007.85
2019-04-22T06:46:27.193Z,101001.20
2019-04-22T06:49:03.625Z,101003.42
2019-04-22T06:51:33.078Z,100998.47
2019-04-22T06:54:07.272Z,100997.43
2019-04-22T06:56:43.118Z,100994.68
2019-04-22T06:59:14.328Z,100999.77
2019-04-22T07:01:55.138Z,101005.23
2019-04-22T07:04:17.131Z,101001.53
2019-04-22T07:06:56.827Z,100999.26
2019-04-22T07:11:59.708Z,101003.41
2019-04-22T07:14:35.125Z,101007.83
2019-04-22T07:17:10.217Z,101002.39
2019-04-22T07:19:45.009Z,101002.30
2019-04-22T07:22:18.143Z,100996.19
2019-04-22T07:27:22.152Z,101001.42
2019-04-22T07:30:01.926Z,101006.72
2019-04-22T07:32:53.533Z,101002.00
2019-04-22T07:35:08.342Z,100999.33
2019-04-22T07:40:09.517Z,101003.53
2019-04-22T07:42:45.145Z,100990.07
2019-04-22T07:45:20.284Z,100993.53
2019-04-22T07:47:58.936Z,100986.47
2019-04-22T07:50:39.311Z,100989.50
2019-04-22T07:52:58.884Z,100994.64
2019-04-22T07:55:32.610Z,100993.92
2019-04-22T07:58:11.899Z,100994.27
2019-04-22T08:00:50.567Z,100990.29
2019-04-22T08:03:24.509Z,100979.74
2019-04-22T08:05:58.555Z,100990.61
2019-04-22T08:10:57.953Z,100991.38
2019-04-22T08:13:31.504Z,100992.52
2019-04-22T08:16:02.787Z,100986.58
2019-04-22T08:18:39.157Z,100978.59
2019-04-22T08:21:12.275Z,100990.61
2019-04-22T08:23:44.729Z,100973.50
2019-04-22T08:26:16.761Z,100990.31
2019-04-22T08:28:55.819Z,100982.89
2019-04-22T08:31:20.441Z,100982.17
2019-04-22T08:33:54.553Z,100977.90
2019-04-22T08:36:56.965Z,100979.83
2019-04-22T08:39:00.855Z,100977.91
2019-04-22T08:44:07.659Z,100977.39
2019-04-22T08:49:28.729Z,100975.11
2019-04-22T08:52:01.438Z,100976.27
2019-04-22T08:54:34.108Z,100971.69
2019-04-22T08:59:37.189Z,100972.87
2019-04-22T09:02:20.502Z,100964.33
2019-04-22T09:04:49.451Z,100970.58
2019-04-22T09:07:28.368Z,100971.42
2019-04-22T09:09:56.927Z,100970.59
2019-04-22T09:12:46.954Z,100968.03
2019-04-22T09:15:08.602Z,100969.67
2019-04-22T09:17:40.286Z,100960.66
2019-04-22T09:20:13.083Z,100959.44
2019-04-22T09:22:47.080Z,100957.77
2019-04-22T09:25:44.081Z,100965.81
2019-04-22T09:28:17.561Z,100957.79
2019-04-22T09:30:55.619Z,100960.17
2019-04-22T09:33:20.631Z,100968.42
2019-04-22T09:41:00.695Z,100962.39
2019-04-22T09:43:45.467Z,100961.45
2019-04-22T09:46:08.990Z,100958.34
2019-04-22T09:48:43.565Z,100956.69
2019-04-22T09:51:13.499Z,100957.88
2019-04-22T09:53:54.757Z,100950.44
2019-04-22T09:56:26.061Z,100953.52
2019-04-22T09:58:55.616Z,100949.02
2019-04-22T10:01:34.091Z,100935.42
2019-04-22T10:04:18.203Z,100949.48
2019-04-22T10:06:39.447Z,100942.83
2019-04-22T10:09:45.181Z,100940.09
2019-04-22T10:11:47.691Z,100941.59
2019-04-22T10:14:19.114Z,100937.97
2019-04-22T10:16:53.816Z,100933.92
2019-04-22T10:19:30.024Z,100938.30
2019-04-22T10:24:36.907Z,100935.38
2019-04-22T10:27:05.986Z,100919.28
2019-04-22T10:29:47.382Z,100922.98
2019-04-22T10:32:11.296Z,100926.06
2019-04-22T10:34:38.800Z,100918.37
2019-04-22T10:37:06.403Z,100914.39
2019-04-22T10:39:45.851Z,100921.65
2019-04-22T10:42:11.360Z,100921.70
2019-04-22T10:44:44.777Z,100903.32
2019-04-22T10:47:18.077Z,100909.97
2019-04-22T10:49:49.678Z,100905.98
2019-04-22T10:52:21.696Z,100909.70
2019-04-22T10:54:54.005Z,100894.62
2019-04-22T10:57:27.583Z,100905.12
2019-04-22T11:00:00.708Z,100900.56
2019-04-22T11:02:35.125Z,100890.39
2019-04-22T11:05:10.240Z,100893.23
2019-04-22T11:07:51.420Z,100895.39
2019-04-22T11:10:35.386Z,100894.50
2019-04-22T11:12:54.689Z,100895.14
2019-04-22T11:15:28.574Z,100884.28
2019-04-22T11:18:03.440Z,100888.92
2019-04-22T11:20:39.880Z,100870.75
2019-04-22T11:23:11.651Z,100878.36
2019-04-22T11:25:43.916Z,100882.89
2019-04-22T11:28:15.981Z,100887.46
2019-04-22T11:30:48.236Z,100866.94
2019-04-22T11:33:20.627Z,100869.04
2019-04-22T11:35:52.170Z,100870.71
2019-04-22T11:38:31.301Z,100872.16
2019-04-22T11:41:05.302Z,100864.90
2019-04-22T11:43:38.859Z,100876.22
2019-04-22T11:46:13.345Z,100872.70
2019-04-22T11:48:49.943Z,100874.20
2019-04-22T11:51:24.357Z,100869.94
2019-04-22T11:53:58.681Z,100870.41
2019-04-22T11:56:31.303Z,100868.16
2019-04-22T11:59:04.892Z,100858.30
2019-04-22T12:01:37.194Z,100868.97
2019-04-22T12:04:09.701Z,100855.51
2019-04-22T12:06:41.942Z,100865.36
2019-04-22T12:09:15.469Z,100865.96
2019-04-22T12:11:47.571Z,100861.53
2019-04-22T12:14:20.429Z,100856.48
2019-04-22T12:16:55.323Z,100861.25
2019-04-22T12:19:29.458Z,100859.10
2019-04-22T12:22:02.904Z,100859.11
2019-04-22T12:25:10.554Z,100856.79
2019-04-22T12:27:22.846Z,100851.91
2019-04-22T12:29:56.613Z,100859.34
2019-04-22T12:32:29.702Z,100856.38
2019-04-22T12:35:01.833Z,100856.04
2019-04-22T12:37:43.577Z,100846.52
2019-04-22T12:40:30.147Z,100850.02
2019-04-22T12:43:04.652Z,100855.62
2019-04-22T12:45:42.510Z,100831.59
2019-04-22T12:48:17.186Z,100850.23
2019-04-22T12:50:58.721Z,100851.28
2019-04-22T12:53:30.001Z,100844.06
2019-04-22T12:56:05.054Z,100836.95
2019-04-22T12:58:41.221Z,100835.90
2019-04-22T13:01:14.934Z,100844.91
2019-04-22T13:03:50.144Z,100838.35
2019-04-22T13:06:23.632Z,100831.19
2019-04-22T13:08:56.574Z,100824.05
2019-04-22T13:11:40.735Z,100819.64
2019-04-22T13:14:14.944Z,100825.27
2019-04-22T13:16:47.260Z,100816.65
2019-04-22T13:19:21.089Z,100816.80
2019-04-22T13:21:54.606Z,100820.25
2019-04-22T13:24:34.052Z,100808.66
2019-04-22T13:27:06.758Z,100796.75
2019-04-22T13:29:41.210Z,100816.30
2019-04-22T13:32:13.900Z,100817.22
2019-04-22T13:34:51.905Z,100828.30
2019-04-22T13:37:20.966Z,100816.76
2019-04-22T13:39:52.896Z,100808.23
2019-04-22T13:42:27.550Z,100811.67
2019-04-22T13:45:00.234Z,100805.34
2019-04-22T13:47:49.129Z,100811.94
2019-04-22T13:50:48.166Z,100805.21
2019-04-22T13:53:24.515Z,100800.25
2019-04-22T13:58:05.830Z,100810.19
2019-04-22T14:00:26.917Z,100812.64
2019-04-22T14:03:29.008Z,100795.61
2019-04-22T14:06:02.675Z,100803.73
2019-04-22T14:08:35.333Z,100799.56
2019-04-22T14:11:18.042Z,100804.14
2019-04-22T14:13:41.965Z,100798.43
2019-04-22T14:16:15.136Z,100791.20
2019-04-22T14:18:47.753Z,100795.78
2019-04-22T14:21:21.065Z,100797.09
2019-04-22T14:23:53.373Z,100793.42
2019-04-22T14:26:25.174Z,100783.91
2019-04-22T14:29:00.199Z,100779.91
2019-04-22T14:31:32.873Z,100782.47
2019-04-22T14:34:15.224Z,100761.80
2019-04-22T14:36:51.205Z,100771.94
2019-04-22T14:39:26.028Z,100766.29
2019-04-22T14:42:15.771Z,100779.09
2019-04-22T14:47:25.744Z,100757.35
2019-04-22T14:49:59.003Z,100765.73
2019-04-22T14:52:33.195Z,100760.50
2019-04-22T14:54:54.308Z,100748.33
2019-04-22T14:57:19.251Z,100755.31
2019-04-22T14:59:50.580Z,100749.45
2019-04-22T15:02:43.816Z,100747.97
2019-04-22T15:05:06.054Z,100745.92
2019-04-22T15:07:41.287Z,100743.52
2019-04-22T15:10:18.163Z,100739.52
2019-04-22T15:13:00.376Z,100739.82
2019-04-22T15:16:14.003Z,100724.78
2019-04-22T15:19:43.696Z,100725.69
2019-04-22T15:22:15.109Z,100736.72
2019-04-22T15:24:47.776Z,100729.98
2019-04-22T15:27:20.332Z,100712.25
2019-04-22T15:29:53.761Z,100711.84
2019-04-22T15:32:25.401Z,100700.73
2019-04-22T15:34:59.468Z,100728.33
2019-04-22T15:37:31.140Z,100733.30
2019-04-22T15:40:04.918Z,100719.78
2019-04-22T15:42:41.126Z,100721.33
2019-04-22T15:45:13.708Z,100724.76
2019-04-22T15:48:14.720Z,100713.67
2019-04-22T15:50:48.876Z,100723.94
2019-04-22T15:53:22.083Z,100721.09
2019-04-22T15:55:54.664Z,100711.94
2019-04-22T15:58:30.174Z,100701.41
2019-04-22T16:01:12.967Z,100708.34
2019-04-22T16:03:40.806Z,100704.91
2019-04-22T16:06:13.303Z,100715.13
2019-04-22T16:08:47.889Z,100695.33
2019-04-22T16:11:22.297Z,100696.57
2019-04-22T16:13:54.734Z,100702.91
2019-04-22T16:16:30.342Z,100697.39
2019-04-22T16:19:04.458Z,100693.02
2019-04-22T16:21:42.417Z,100704.16
2019-04-22T16:24:36.084Z,100690.07
2019-04-22T16:27:16.214Z,100704.35
2019-04-22T16:29:51.977Z,100692.84
2019-04-22T16:32:25.499Z,100700.50
2019-04-22T16:34:57.083Z,100698.27
2019-04-22T16:37:28.635Z,100686.80
2019-04-22T16:40:00.926Z,100686.11
2019-04-22T16:42:41.016Z,100681.30
2019-04-22T16:45:07.791Z,100687.67
2019-04-22T16:47:39.667Z,100681.09
2019-04-22T16:50:11.272Z,100684.14
2019-04-22T16:52:43.950Z,100677.55
2019-04-22T16:55:16.935Z,100675.84
2019-04-22T16:57:49.046Z,100681.37
2019-04-22T17:00:20.673Z,100680.45
2019-04-22T17:03:20.851Z,100670.58
2019-04-22T17:06:17.376Z,100673.91
2019-04-22T17:08:50.905Z,100676.08
2019-04-22T17:11:23.035Z,100675.52
2019-04-22T17:13:55.154Z,100668.28
2019-04-22T17:16:30.599Z,100668.78
2019-04-22T17:19:06.139Z,100666.95
2019-04-22T17:21:39.632Z,100669.22
2019-04-22T17:24:13.998Z,100671.75
2019-04-22T17:26:46.462Z,100672.80
2019-04-22T17:29:18.796Z,100670.61
2019-04-22T17:32:01.679Z,100669.74
2019-04-22T17:37:46.867Z,100671.66
2019-04-22T17:38:26.269Z,100679.55
2019-04-22T17:41:01.004Z,100683.78
2019-04-22T17:43:51.822Z,100683.86
2019-04-22T17:46:40.372Z,100678.73
2019-04-22T17:49:54.068Z,100668.83
2019-04-22T17:53:03.146Z,100679.16
2019-04-22T17:55:31.633Z,100689.38
2019-04-22T17:58:07.940Z,100684.90
2019-04-22T18:00:32.275Z,100685.11
2019-04-22T18:03:03.236Z,100684.53
2019-04-22T18:05:34.644Z,100682.78
2019-04-22T18:08:17.011Z,100681.31
2019-04-22T18:10:49.209Z,100683.52
2019-04-22T18:13:33.477Z,100680.08
2019-04-22T18:16:04.134Z,100675.20
2019-04-22T18:18:37.406Z,100677.28
2019-04-22T18:21:02.152Z,100679.52
2019-04-22T18:23:54.007Z,100685.16
2019-04-22T18:26:35.982Z,100688.71
2019-04-22T18:29:11.265Z,100688.15
2019-04-22T18:31:35.584Z,100685.18
2019-04-22T18:34:09.794Z,100684.02
2019-04-22T18:36:45.665Z,100690.45
2019-04-22T18:39:29.916Z,100685.23
2019-04-22T18:42:04.810Z,100692.80
2019-04-22T18:44:39.981Z,100687.16
2019-04-22T18:47:14.616Z,100684.49
2019-04-22T18:49:55.468Z,100684.78
2019-04-22T18:52:58.580Z,100688.06
2019-04-22T18:55:33.624Z,100686.81
2019-04-22T18:58:11.680Z,100688.27
2019-04-22T19:00:34.295Z,100687.35
2019-04-22T19:03:15.596Z,100688.36
2019-04-22T19:06:03.523Z,100682.33
2019-04-22T19:08:36.645Z,100689.55
2019-04-22T19:11:12.569Z,100689.73
2019-04-22T19:16:30.866Z,100693.88
2019-04-22T19:19:21.238Z,100690.88
2019-04-22T19:21:35.521Z,100690.92
2019-04-22T19:24:06.077Z,100685.72
2019-04-22T19:26:50.520Z,100692.52
2019-04-22T19:29:22.007Z,100686.02
2019-04-22T19:31:51.192Z,100688.53
2019-04-22T19:34:20.899Z,100689.53
2019-04-22T19:36:58.064Z,100684.77
2019-04-22T19:39:31.017Z,100678.20
2019-04-22T19:42:16.994Z,100685.22
2019-04-22T19:44:46.347Z,100685.05
2019-04-22T19:49:57.999Z,100688.67
2019-04-22T19:52:28.730Z,100682.03
2019-04-22T19:55:03.304Z,100682.34
2019-04-22T19:57:34.212Z,100679.27
2019-04-22T20:00:05.120Z,100685.22
2019-04-22T20:03:18.554Z,100681.86
2019-04-22T20:06:01.375Z,100685.91
2019-04-22T20:08:31.659Z,100689.00
2019-04-22T20:11:13.184Z,100687.90
2019-04-22T20:13:46.351Z,100689.39
2019-04-22T20:16:03.518Z,100689.61
2019-04-22T20:18:52.348Z,100620.87
2019-04-22T20:21:22.644Z,100687.22
2019-04-22T20:23:45.397Z,100687.83
2019-04-22T20:26:17.855Z,100681.75
2019-04-22T20:28:58.980Z,100684.47
2019-04-22T20:31:33.954Z,100687.38
2019-04-22T20:34:09.118Z,100683.89
2019-04-22T20:39:07.842Z,100682.80
2019-04-22T20:41:41.090Z,100680.42
2019-04-22T20:44:22.682Z,100677.77
2019-04-22T20:46:49.120Z,100672.89
2019-04-22T20:49:33.770Z,100673.41
2019-04-22T20:54:39.030Z,100672.11
2019-04-22T20:57:01.809Z,100665.77
2019-04-22T20:59:42.904Z,100667.58
2019-04-22T21:02:07.988Z,100667.67
2019-04-22T21:04:38.204Z,100671.23
2019-04-22T21:07:14.052Z,100662.47
2019-04-22T21:09:49.236Z,100669.53
2019-04-22T21:12:21.156Z,100663.02
2019-04-22T21:15:10.556Z,100661.47
2019-04-22T21:17:37.664Z,100662.36
2019-04-22T21:20:13.979Z,100662.19
2019-04-22T21:22:42.045Z,100661.19
2019-04-22T21:25:11.621Z,100667.27
2019-04-22T21:27:51.041Z,100670.38
2019-04-22T21:30:19.498Z,100667.40
2019-04-22T21:32:56.300Z,100667.94
2019-04-22T21:35:40.492Z,100661.91
2019-04-22T21:38:04.541Z,100664.78
2019-04-22T21:40:34.246Z,100663.99
2019-04-22T21:43:12.727Z,100661.92
2019-04-22T21:45:37.667Z,100659.03
2019-04-22T21:48:28.073Z,100659.77
2019-04-22T21:50:57.464Z,100656.05
2019-04-22T21:53:31.490Z,100650.02
2019-04-22T21:56:11.688Z,100649.72
2019-04-22T21:58:53.255Z,100652.61
2019-04-22T22:01:49.795Z,100656.31
2019-04-22T22:04:15.279Z,100653.69
2019-04-22T22:06:39.668Z,100653.59
2019-04-22T22:09:22.425Z,100649.99
2019-04-22T22:11:52.865Z,100644.02
2019-04-22T22:14:22.410Z,100652.32
2019-04-22T22:16:53.380Z,100646.88
2019-04-22T22:19:35.957Z,100643.25
2019-04-22T22:22:25.158Z,100640.69
2019-04-22T22:24:46.433Z,100640.47
2019-04-22T22:27:14.507Z,100633.79
2019-04-22T22:29:57.097Z,100634.80
2019-04-22T22:32:26.078Z,100638.82
2019-04-22T22:34:57.287Z,100638.40
2019-04-22T22:37:17.013Z,100630.23
2019-04-22T22:39:51.323Z,100631.59
2019-04-22T22:42:22.430Z,100619.93
2019-04-22T22:44:54.557Z,100625.71
2019-04-22T22:47:42.254Z,100621.28
2019-04-22T22:50:15.920Z,100617.11
2019-04-22T22:55:22.004Z,100610.78
2019-04-22T22:57:58.239Z,100608.06
2019-04-22T23:00:24.372Z,100608.91
2019-04-22T23:03:36.821Z,100604.27
2019-04-22T23:05:45.574Z,100603.47
2019-04-22T23:08:17.500Z,100600.88
2019-04-22T23:10:55.598Z,100604.66
2019-04-22T23:13:25.842Z,100600.78
2019-04-22T23:15:44.313Z,100603.05
2019-04-22T23:18:05.995Z,100591.73
2019-04-22T23:20:43.289Z,100592.77
2019-04-22T23:23:36.002Z,100593.52
2019-04-22T23:26:19.241Z,100578.39
2019-04-22T23:28:55.638Z,100585.58
2019-04-22T23:31:44.142Z,100578.41
2019-04-22T23:34:26.496Z,100576.09
2019-04-22T23:37:21.780Z,100571.02
2019-04-22T23:40:13.116Z,100571.78
2019-04-22T23:42:36.587Z,100565.56
2019-04-22T23:45:10.811Z,100567.23
2019-04-22T23:47:35.559Z,100560.02
2019-04-22T23:50:21.196Z,100559.09
2019-04-22T23:52:59.447Z,100560.09
2019-04-22T23:55:33.818Z,100553.47
2019-04-22T23:58:11.111Z,100557.52
